createdAt,value
2017-04-08T00:00:19.373Z,15.50
2017-04-08T00:01:17.904Z,15.40
2017-04-08T00:02:15.717Z,15.40
2017-04-08T00:03:13.476Z,15.40
2017-04-08T00:04:11.268Z,15.40
2017-04-08T00:05:09.111Z,15.60
2017-04-08T00:06:06.937Z,15.60
2017-04-08T00:07:04.737Z,15.50
2017-04-08T00:09:01.107Z,15.30
2017-04-08T00:09:59.740Z,15.20
2017-04-08T00:10:57.573Z,15.20
2017-04-08T00:11:55.353Z,15.10
2017-04-08T00:12:53.147Z,15.10
2017-04-08T00:13:50.937Z,15.00
2017-04-08T00:14:48.710Z,15.00
2017-04-08T00:15:46.486Z,15.10
2017-04-08T00:17:42.809Z,14.90
2017-04-08T00:19:39.058Z,14.90
2017-04-08T00:20:37.595Z,14.90
2017-04-08T00:21:35.393Z,14.90
2017-04-08T00:22:33.162Z,15.00
2017-04-08T00:23:30.943Z,15.20
2017-04-08T00:24:28.753Z,15.30
2017-04-08T00:25:26.537Z,15.30
2017-04-08T00:26:24.343Z,15.40
2017-04-08T00:27:22.129Z,15.40
2017-04-08T00:28:19.905Z,15.30
2017-04-08T00:29:17.734Z,15.20
2017-04-08T00:30:15.527Z,15.20
2017-04-08T00:31:13.306Z,15.20
2017-04-08T00:32:11.858Z,15.00
2017-04-08T00:33:09.627Z,15.00
2017-04-08T00:34:07.482Z,15.00
2017-04-08T00:35:05.268Z,14.80
2017-04-08T00:36:03.810Z,15.00
2017-04-08T00:37:02.365Z,14.90
2017-04-08T00:38:00.198Z,14.90
2017-04-08T00:38:57.999Z,15.00
2017-04-08T00:40:54.307Z,15.10
2017-04-08T00:41:52.097Z,15.10
2017-04-08T00:42:49.893Z,15.20
2017-04-08T00:43:47.730Z,15.30
2017-04-08T00:44:45.523Z,15.30
2017-04-08T00:45:43.323Z,15.30
2017-04-08T00:46:41.891Z,15.20
2017-04-08T00:47:40.402Z,15.20
2017-04-08T00:48:38.167Z,15.10
2017-04-08T00:49:36.013Z,15.00
2017-04-08T00:50:33.809Z,14.90
2017-04-08T00:52:30.809Z,15.00
2017-04-08T00:53:28.586Z,14.90
2017-04-08T00:56:24.101Z,14.80
2017-04-08T00:58:21.174Z,14.90
2017-04-08T00:59:19.703Z,14.70
2017-04-08T01:00:22.133Z,14.70
2017-04-08T01:01:26.485Z,14.60
2017-04-08T01:02:24.253Z,14.70
2017-04-08T01:03:22.098Z,14.80
2017-04-08T01:04:19.902Z,14.80
2017-04-08T01:05:18.421Z,14.60
2017-04-08T01:06:16.277Z,14.70
2017-04-08T01:07:14.051Z,14.60
2017-04-08T01:08:11.842Z,14.60
2017-04-08T01:09:09.694Z,14.60
2017-04-08T01:10:08.206Z,14.50
2017-04-08T01:11:05.989Z,14.50
2017-04-08T01:12:03.777Z,14.50
2017-04-08T01:13:02.293Z,14.40
2017-04-08T01:14:00.061Z,14.50
2017-04-08T01:14:57.862Z,14.50
2017-04-08T01:15:55.646Z,14.60
2017-04-08T01:16:53.435Z,14.70
2017-04-08T01:18:49.711Z,14.50
2017-04-08T01:19:47.493Z,14.60
2017-04-08T01:20:45.289Z,14.60
2017-04-08T01:21:43.821Z,14.50
2017-04-08T01:22:41.677Z,14.70
2017-04-08T01:24:37.944Z,14.30
2017-04-08T01:25:35.753Z,14.30
2017-04-08T01:26:33.533Z,14.20
2017-04-08T01:27:31.329Z,14.20
2017-04-08T01:28:29.169Z,14.20
2017-04-08T01:29:26.941Z,14.20
2017-04-08T01:30:24.777Z,14.80
2017-04-08T01:31:23.297Z,15.00
2017-04-08T01:32:21.177Z,14.90
2017-04-08T01:34:18.195Z,14.30
2017-04-08T01:35:16.008Z,14.40
2017-04-08T01:36:14.581Z,14.30
2017-04-08T01:37:13.105Z,14.30
2017-04-08T01:38:10.913Z,14.40
2017-04-08T01:39:09.432Z,14.40
2017-04-08T01:41:05.674Z,14.20
2017-04-08T01:43:02.717Z,14.40
2017-04-08T01:44:00.505Z,14.10
2017-04-08T01:44:59.033Z,13.90
2017-04-08T01:46:55.292Z,14.10
2017-04-08T01:47:53.074Z,14.10
2017-04-08T01:48:51.411Z,14.10
2017-04-08T01:49:49.193Z,14.30
2017-04-08T01:50:46.985Z,14.50
2017-04-08T01:51:44.779Z,14.50
2017-04-08T01:52:43.281Z,14.60
2017-04-08T01:53:41.099Z,14.70
2017-04-08T01:54:39.641Z,14.70
2017-04-08T01:55:37.417Z,14.60
2017-04-08T01:56:35.218Z,14.40
2017-04-08T01:57:33.037Z,14.30
2017-04-08T01:58:31.585Z,14.20
2017-04-08T01:59:29.374Z,14.30
2017-04-08T02:00:27.225Z,14.20
2017-04-08T02:01:25.089Z,14.10
2017-04-08T02:02:23.006Z,14.10
2017-04-08T02:03:20.801Z,14.10
2017-04-08T02:04:18.617Z,14.10
2017-04-08T02:05:16.466Z,14.20
2017-04-08T02:06:14.281Z,14.20
2017-04-08T02:07:12.157Z,14.20
2017-04-08T02:08:10.009Z,14.30
2017-04-08T02:09:07.832Z,14.50
2017-04-08T02:10:06.423Z,14.30
2017-04-08T02:11:04.222Z,14.60
2017-04-08T02:12:02.057Z,14.50
2017-04-08T02:12:59.874Z,14.40
2017-04-08T02:13:57.689Z,14.60
2017-04-08T02:14:55.493Z,14.70
2017-04-08T02:15:53.321Z,15.10
2017-04-08T02:16:51.133Z,15.20
2017-04-08T02:17:48.955Z,15.30
2017-04-08T02:18:46.745Z,15.00
2017-04-08T02:19:44.602Z,14.80
2017-04-08T02:20:42.400Z,14.70
2017-04-08T02:22:38.673Z,14.30
2017-04-08T02:23:36.478Z,14.30
2017-04-08T02:25:32.749Z,14.40
2017-04-08T02:26:30.580Z,14.40
2017-04-08T02:27:28.358Z,14.40
2017-04-08T02:28:26.197Z,14.60
2017-04-08T02:29:24.769Z,14.70
2017-04-08T02:30:23.301Z,14.70
2017-04-08T02:31:21.094Z,14.70
2017-04-08T02:32:19.637Z,14.50
2017-04-08T02:33:17.437Z,14.60
2017-04-08T02:34:15.261Z,14.50
2017-04-08T02:35:13.176Z,14.40
2017-04-08T02:36:11.473Z,14.50
2017-04-08T02:37:09.265Z,14.50
2017-04-08T02:38:07.095Z,14.50
2017-04-08T02:39:05.670Z,14.40
2017-04-08T02:40:03.466Z,14.30
2017-04-08T02:41:01.302Z,14.40
2017-04-08T02:41:59.137Z,14.50
2017-04-08T02:42:56.966Z,14.40
2017-04-08T02:43:54.769Z,14.50
2017-04-08T02:44:52.565Z,14.70
2017-04-08T02:45:50.377Z,14.50
2017-04-08T02:46:48.189Z,14.40
2017-04-08T02:47:45.985Z,14.40
2017-04-08T02:48:43.807Z,14.40
2017-04-08T02:49:41.596Z,14.20
2017-04-08T02:50:39.377Z,14.00
2017-04-08T02:51:37.290Z,14.00
2017-04-08T02:52:35.121Z,14.10
2017-04-08T02:53:32.952Z,14.10
2017-04-08T02:54:30.777Z,14.30
2017-04-08T02:55:27.857Z,14.20
2017-04-08T02:56:25.673Z,14.30
2017-04-08T02:57:23.550Z,14.20
2017-04-08T02:58:21.357Z,14.30
2017-04-08T02:59:19.141Z,14.40
2017-04-08T03:00:16.994Z,14.40
2017-04-08T03:01:14.935Z,14.30
2017-04-08T03:02:12.733Z,14.20
2017-04-08T03:03:10.518Z,14.50
2017-04-08T03:04:08.315Z,14.50
2017-04-08T03:05:06.101Z,14.50
2017-04-08T03:06:03.857Z,14.50
2017-04-08T03:07:01.655Z,14.40
2017-04-08T03:08:00.186Z,14.20
2017-04-08T03:08:57.977Z,14.10
2017-04-08T03:09:55.845Z,14.00
2017-04-08T03:10:54.382Z,14.00
2017-04-08T03:11:52.191Z,14.10
2017-04-08T03:12:49.985Z,14.10
2017-04-08T03:13:47.766Z,14.30
2017-04-08T03:15:44.034Z,14.40
2017-04-08T03:16:41.825Z,14.40
2017-04-08T03:17:39.625Z,14.50
2017-04-08T03:18:37.453Z,14.60
2017-04-08T03:19:35.247Z,14.50
2017-04-08T03:20:33.044Z,14.30
2017-04-08T03:21:30.815Z,14.40
2017-04-08T03:23:27.053Z,14.30
2017-04-08T03:24:25.577Z,14.40
2017-04-08T03:25:23.353Z,14.60
2017-04-08T03:26:21.165Z,14.80
2017-04-08T03:27:18.942Z,14.80
2017-04-08T03:28:16.729Z,14.70
2017-04-08T03:30:12.968Z,14.70
2017-04-08T03:31:11.487Z,14.70
2017-04-08T03:32:09.265Z,14.70
2017-04-08T03:33:07.059Z,14.60
2017-04-08T03:34:05.605Z,14.40
2017-04-08T03:35:03.404Z,14.40
2017-04-08T03:36:01.206Z,14.50
2017-04-08T03:36:58.980Z,14.30
2017-04-08T03:38:55.236Z,14.20
2017-04-08T03:39:53.033Z,14.20
2017-04-08T03:40:50.788Z,14.10
2017-04-08T03:41:48.573Z,14.10
2017-04-08T03:42:47.101Z,14.00
2017-04-08T03:43:44.905Z,14.10
2017-04-08T03:44:42.718Z,14.30
2017-04-08T03:45:40.529Z,14.30
2017-04-08T03:46:39.061Z,14.20
2017-04-08T03:47:36.857Z,14.40
2017-04-08T03:48:35.386Z,14.60
2017-04-08T03:49:33.181Z,14.70
2017-04-08T03:50:31.708Z,14.70
2017-04-08T03:51:29.514Z,14.60
2017-04-08T03:52:27.285Z,14.50
2017-04-08T03:53:25.066Z,14.50
2017-04-08T03:54:22.850Z,14.60
2017-04-08T03:55:20.638Z,14.70
2017-04-08T03:56:18.421Z,14.80
2017-04-08T03:57:16.226Z,14.70
2017-04-08T03:58:14.068Z,14.60
2017-04-08T03:59:11.870Z,14.50
2017-04-08T04:00:09.683Z,14.40
2017-04-08T04:02:05.953Z,14.70
2017-04-08T04:03:03.766Z,14.60
2017-04-08T04:04:02.314Z,14.60
2017-04-08T04:05:00.141Z,14.80
2017-04-08T04:05:57.917Z,14.70
2017-04-08T04:06:55.746Z,14.50
2017-04-08T04:07:53.533Z,14.60
2017-04-08T04:08:51.317Z,14.70
2017-04-08T04:09:49.115Z,14.60
2017-04-08T04:10:46.923Z,14.50
2017-04-08T04:11:44.733Z,14.40
2017-04-08T04:12:42.577Z,14.50
2017-04-08T04:13:40.378Z,14.50
2017-04-08T04:14:38.156Z,14.50
2017-04-08T04:15:36.722Z,14.50
2017-04-08T04:16:35.253Z,14.50
2017-04-08T04:17:33.048Z,14.40
2017-04-08T04:18:31.605Z,14.40
2017-04-08T04:19:29.405Z,14.50
2017-04-08T04:20:27.205Z,14.70
2017-04-08T04:21:25.034Z,14.60
2017-04-08T04:22:22.822Z,14.70
2017-04-08T04:23:20.640Z,14.90
2017-04-08T04:24:18.449Z,14.60
2017-04-08T04:25:17.105Z,14.60
2017-04-08T04:26:14.881Z,14.80
2017-04-08T04:27:13.418Z,14.90
2017-04-08T04:28:11.253Z,15.00
2017-04-08T04:29:09.065Z,15.00
2017-04-08T04:30:06.894Z,14.70
2017-04-08T04:31:04.698Z,14.60
2017-04-08T04:32:02.477Z,14.50
2017-04-08T04:33:00.309Z,14.50
2017-04-08T04:33:58.130Z,14.50
2017-04-08T04:35:54.410Z,14.80
2017-04-08T04:36:52.210Z,14.50
2017-04-08T04:38:49.213Z,14.60
2017-04-08T04:39:47.021Z,14.50
2017-04-08T04:40:45.572Z,14.50
2017-04-08T04:41:44.114Z,14.60
2017-04-08T04:42:41.897Z,14.60
2017-04-08T04:43:39.720Z,14.70
2017-04-08T04:44:37.540Z,14.60
2017-04-08T04:45:35.348Z,14.90
2017-04-08T04:46:33.165Z,15.00
2017-04-08T04:47:30.974Z,15.00
2017-04-08T04:48:28.761Z,14.90
2017-04-08T04:49:26.555Z,14.80
2017-04-08T04:50:24.345Z,14.50
2017-04-08T04:52:20.617Z,14.30
2017-04-08T04:53:18.426Z,14.40
2017-04-08T04:55:14.676Z,14.80
2017-04-08T04:56:12.485Z,14.80
2017-04-08T04:57:10.282Z,14.90
2017-04-08T04:58:08.085Z,14.90
2017-04-08T04:59:05.854Z,14.80
2017-04-08T05:00:03.641Z,14.60
2017-04-08T05:01:02.173Z,14.50
2017-04-08T05:01:59.977Z,14.60
2017-04-08T05:02:58.512Z,14.50
2017-04-08T05:03:56.305Z,14.50
2017-04-08T05:04:54.840Z,14.60
2017-04-08T05:05:52.630Z,14.70
2017-04-08T05:06:51.160Z,14.60
2017-04-08T05:07:48.942Z,14.70
2017-04-08T05:08:47.468Z,14.60
2017-04-08T05:09:45.254Z,14.70
2017-04-08T05:10:43.037Z,14.50
2017-04-08T05:11:41.577Z,14.40
2017-04-08T05:12:40.123Z,14.40
2017-04-08T05:13:37.932Z,14.60
2017-04-08T05:14:36.453Z,14.50
2017-04-08T05:15:34.253Z,14.50
2017-04-08T05:16:32.767Z,14.50
2017-04-08T05:17:30.541Z,14.60
2017-04-08T05:18:28.304Z,14.50
2017-04-08T05:19:26.101Z,14.50
2017-04-08T05:20:24.628Z,14.70
2017-04-08T05:21:22.494Z,14.70
2017-04-08T05:22:20.266Z,14.80
2017-04-08T05:23:18.774Z,14.90
2017-04-08T05:24:16.553Z,14.80
2017-04-08T05:25:15.365Z,14.70
2017-04-08T05:27:11.625Z,14.90
2017-04-08T05:28:09.385Z,15.10
2017-04-08T05:29:07.149Z,15.20
2017-04-08T05:30:04.917Z,15.40
2017-04-08T05:31:02.710Z,15.30
2017-04-08T05:32:01.221Z,15.10
2017-04-08T05:32:58.977Z,15.10
2017-04-08T05:33:56.763Z,15.00
2017-04-08T05:34:54.537Z,15.00
2017-04-08T05:36:50.773Z,14.80
2017-04-08T05:37:49.287Z,14.90
2017-04-08T05:38:47.074Z,14.90
2017-04-08T05:39:44.888Z,14.80
2017-04-08T05:40:42.673Z,14.70
2017-04-08T05:41:40.437Z,14.80
2017-04-08T05:42:38.209Z,15.10
2017-04-08T05:44:34.442Z,14.90
2017-04-08T05:45:32.961Z,14.90
2017-04-08T05:46:30.743Z,14.90
2017-04-08T05:47:28.550Z,14.90
2017-04-08T05:48:26.345Z,14.70
2017-04-08T05:49:24.133Z,14.80
2017-04-08T05:50:21.900Z,14.80
2017-04-08T05:51:19.673Z,14.80
2017-04-08T05:52:17.677Z,14.90
2017-04-08T05:53:15.476Z,15.10
2017-04-08T05:54:13.313Z,15.10
2017-04-08T05:55:11.817Z,14.90
2017-04-08T05:56:09.630Z,14.80
2017-04-08T05:57:08.158Z,14.70
2017-04-08T05:58:06.010Z,15.00
2017-04-08T05:59:03.781Z,15.20
2017-04-08T06:00:01.614Z,15.10
2017-04-08T06:00:59.437Z,15.00
2017-04-08T06:01:58.043Z,15.00
2017-04-08T06:02:55.841Z,15.00
2017-04-08T06:03:53.614Z,14.90
2017-04-08T06:04:52.134Z,14.80
2017-04-08T06:06:48.416Z,14.90
2017-04-08T06:07:46.933Z,15.10
2017-04-08T06:08:44.729Z,15.10
2017-04-08T06:09:42.504Z,15.20
2017-04-08T06:10:41.051Z,15.30
2017-04-08T06:11:38.835Z,15.30
2017-04-08T06:12:37.364Z,15.10
2017-04-08T06:13:35.147Z,15.00
2017-04-08T06:14:33.729Z,15.10
2017-04-08T06:15:31.525Z,15.40
2017-04-08T06:16:29.337Z,15.50
2017-04-08T06:17:27.872Z,15.40
2017-04-08T06:18:25.657Z,15.40
2017-04-08T06:19:23.441Z,15.40
2017-04-08T06:20:21.217Z,15.30
2017-04-08T06:21:19.006Z,15.30
2017-04-08T06:23:15.241Z,15.50
2017-04-08T06:24:13.026Z,15.50
2017-04-08T06:25:10.828Z,15.50
2017-04-08T06:26:08.646Z,15.20
2017-04-08T06:27:06.460Z,15.30
2017-04-08T06:29:02.694Z,15.30
2017-04-08T06:30:01.242Z,15.20
2017-04-08T06:30:59.021Z,15.30
2017-04-08T06:31:56.858Z,15.40
2017-04-08T06:32:55.437Z,15.30
2017-04-08T06:34:51.677Z,15.10
2017-04-08T06:35:49.477Z,15.10
2017-04-08T06:36:47.364Z,15.30
2017-04-08T06:37:45.173Z,15.40
2017-04-08T06:38:42.956Z,15.40
2017-04-08T06:39:40.753Z,15.30
2017-04-08T06:40:39.306Z,15.20
2017-04-08T06:41:37.113Z,15.40
2017-04-08T06:42:34.934Z,15.50
2017-04-08T06:43:33.461Z,15.40
2017-04-08T06:44:31.306Z,15.50
2017-04-08T06:45:29.093Z,15.50
2017-04-08T06:46:26.905Z,15.60
2017-04-08T06:47:24.822Z,15.60
2017-04-08T06:48:22.601Z,15.60
2017-04-08T06:49:21.224Z,15.50
2017-04-08T06:50:19.777Z,15.40
2017-04-08T06:51:17.606Z,15.40
2017-04-08T06:52:16.192Z,15.20
2017-04-08T06:53:14.242Z,15.30
2017-04-08T06:54:12.070Z,15.20
2017-04-08T06:55:09.937Z,15.20
2017-04-08T06:56:07.753Z,15.20
2017-04-08T06:57:05.554Z,15.20
2017-04-08T06:58:03.390Z,15.20
2017-04-08T06:59:01.245Z,15.20
2017-04-08T07:00:57.687Z,15.20
2017-04-08T07:01:55.484Z,15.40
2017-04-08T07:02:53.302Z,15.40
2017-04-08T07:03:51.109Z,15.40
2017-04-08T07:04:48.905Z,15.30
2017-04-08T07:05:46.727Z,15.40
2017-04-08T07:06:44.658Z,15.60
2017-04-08T07:07:42.477Z,15.80
2017-04-08T07:08:40.386Z,15.80
2017-04-08T07:09:38.181Z,15.80
2017-04-08T07:10:35.972Z,15.60
2017-04-08T07:11:33.813Z,15.50
2017-04-08T07:12:31.621Z,15.50
2017-04-08T07:13:29.412Z,15.60
2017-04-08T07:14:27.257Z,15.70
2017-04-08T07:15:25.080Z,15.80
2017-04-08T07:16:22.934Z,15.70
2017-04-08T07:17:20.721Z,15.70
2017-04-08T07:18:18.533Z,15.70
2017-04-08T07:19:16.365Z,15.70
2017-04-08T07:20:14.180Z,15.70
2017-04-08T07:22:10.475Z,15.70
2017-04-08T07:23:08.352Z,15.70
2017-04-08T07:24:06.173Z,15.90
2017-04-08T07:25:03.981Z,16.00
2017-04-08T07:27:00.313Z,16.10
2017-04-08T07:27:58.139Z,16.20
2017-04-08T07:28:55.937Z,16.10
2017-04-08T07:29:53.737Z,16.20
2017-04-08T07:30:51.591Z,16.10
2017-04-08T07:31:49.473Z,16.10
2017-04-08T07:32:47.339Z,16.10
2017-04-08T07:34:43.685Z,16.10
2017-04-08T07:35:42.239Z,16.00
2017-04-08T07:37:38.589Z,16.00
2017-04-08T07:38:36.534Z,15.90
2017-04-08T07:41:31.401Z,16.10
2017-04-08T07:42:29.217Z,15.90
2017-04-08T07:43:27.010Z,16.10
2017-04-08T07:45:23.642Z,16.30
2017-04-08T07:46:21.490Z,16.40
2017-04-08T07:47:19.346Z,16.30
2017-04-08T07:48:17.145Z,16.30
2017-04-08T07:49:14.980Z,16.40
2017-04-08T07:50:12.871Z,16.30
2017-04-08T07:51:10.746Z,16.30
2017-04-08T07:52:08.555Z,16.30
2017-04-08T07:53:06.395Z,16.50
2017-04-08T07:54:04.189Z,16.60
2017-04-08T07:55:02.748Z,16.60
2017-04-08T07:56:00.677Z,16.60
2017-04-08T07:56:58.595Z,16.60
2017-04-08T07:57:56.417Z,16.80
2017-04-08T07:58:54.248Z,16.90
2017-04-08T07:59:52.063Z,16.80
2017-04-08T08:00:50.030Z,16.80
2017-04-08T08:01:47.891Z,17.00
2017-04-08T08:02:45.798Z,17.00
2017-04-08T08:03:44.369Z,16.80
2017-04-08T08:04:42.164Z,16.80
2017-04-08T08:05:39.945Z,17.10
2017-04-08T08:06:37.729Z,16.90
2017-04-08T08:07:35.545Z,16.80
2017-04-08T08:08:33.629Z,16.70
2017-04-08T08:09:31.449Z,16.50
2017-04-08T08:10:29.257Z,16.60
2017-04-08T08:11:27.082Z,16.90
2017-04-08T08:12:25.066Z,16.90
2017-04-08T08:13:22.874Z,16.80
2017-04-08T08:14:20.698Z,16.80
2017-04-08T08:16:17.743Z,16.70
2017-04-08T08:17:15.600Z,16.80
2017-04-08T08:18:14.181Z,16.70
2017-04-08T08:19:12.725Z,16.80
2017-04-08T08:20:10.526Z,16.80
2017-04-08T08:21:08.338Z,17.00
2017-04-08T08:22:06.118Z,17.50
2017-04-08T08:23:04.723Z,17.50
2017-04-08T08:24:02.545Z,17.30
2017-04-08T08:25:01.078Z,17.00
2017-04-08T08:25:58.902Z,17.10
2017-04-08T08:26:56.787Z,16.90
2017-04-08T08:27:54.585Z,16.90
2017-04-08T08:28:53.169Z,17.00
2017-04-08T08:29:51.720Z,17.00
2017-04-08T08:30:49.950Z,17.00
2017-04-08T08:31:47.749Z,16.80
2017-04-08T08:32:46.381Z,16.80
2017-04-08T08:33:44.183Z,16.90
2017-04-08T08:34:42.743Z,16.80
2017-04-08T08:35:40.557Z,17.00
2017-04-08T08:36:38.361Z,17.10
2017-04-08T08:37:36.901Z,17.20
2017-04-08T08:38:34.709Z,17.30
2017-04-08T08:39:32.514Z,17.30
2017-04-08T08:40:30.326Z,17.30
2017-04-08T08:41:28.112Z,17.30
2017-04-08T08:42:25.917Z,17.10
2017-04-08T08:43:24.483Z,17.30
2017-04-08T08:44:23.039Z,17.30
2017-04-08T08:45:20.816Z,17.30
2017-04-08T08:46:19.361Z,17.30
2017-04-08T08:47:17.163Z,17.30
2017-04-08T08:48:14.947Z,17.10
2017-04-08T08:49:12.754Z,17.10
2017-04-08T08:50:10.552Z,17.10
2017-04-08T08:51:08.353Z,17.20
2017-04-08T08:52:06.202Z,17.30
2017-04-08T08:54:02.473Z,17.40
2017-04-08T08:55:00.277Z,17.40
2017-04-08T08:56:56.541Z,17.30
2017-04-08T08:57:55.123Z,17.20
2017-04-08T08:58:52.940Z,17.30
2017-04-08T09:00:49.185Z,17.30
2017-04-08T09:01:47.751Z,17.00
2017-04-08T09:02:46.325Z,17.00
2017-04-08T09:03:44.129Z,17.10
2017-04-08T09:04:41.913Z,17.00
2017-04-08T09:05:39.690Z,17.10
2017-04-08T09:06:38.246Z,17.10
2017-04-08T09:07:36.022Z,17.20
2017-04-08T09:08:34.574Z,17.10
2017-04-08T09:10:30.785Z,17.30
2017-04-08T09:11:28.549Z,17.40
2017-04-08T09:13:24.940Z,17.50
2017-04-08T09:14:22.751Z,17.40
2017-04-08T09:15:21.278Z,17.30
2017-04-08T09:16:19.083Z,17.30
2017-04-08T09:17:16.877Z,17.20
2017-04-08T09:18:14.646Z,17.30
2017-04-08T09:19:12.426Z,17.50
2017-04-08T09:20:10.222Z,17.50
2017-04-08T09:21:07.994Z,17.50
2017-04-08T09:22:05.813Z,17.50
2017-04-08T09:23:04.362Z,17.40
2017-04-08T09:24:02.181Z,17.50
2017-04-08T09:24:59.946Z,17.60
2017-04-08T09:25:57.725Z,17.80
2017-04-08T09:26:55.527Z,17.80
2017-04-08T09:27:53.333Z,17.60
2017-04-08T09:29:50.357Z,17.40
2017-04-08T09:30:48.148Z,17.30
2017-04-08T09:31:46.679Z,17.30
2017-04-08T09:32:44.484Z,17.60
2017-04-08T09:33:42.336Z,17.60
2017-04-08T09:34:40.870Z,17.60
2017-04-08T09:35:38.638Z,17.60
2017-04-08T09:36:36.451Z,17.60
2017-04-08T09:37:34.230Z,17.60
2017-04-08T09:38:32.038Z,17.60
2017-04-08T09:39:29.825Z,17.80
2017-04-08T09:40:27.596Z,17.80
2017-04-08T09:41:25.409Z,17.90
2017-04-08T09:42:23.183Z,18.00
2017-04-08T09:43:21.030Z,18.00
2017-04-08T09:44:18.857Z,18.00
2017-04-08T09:45:16.665Z,18.00
2017-04-08T09:46:14.441Z,18.00
2017-04-08T09:47:12.239Z,18.00
2017-04-08T09:48:10.017Z,18.00
2017-04-08T09:49:07.821Z,17.90
2017-04-08T09:50:06.369Z,17.90
2017-04-08T09:51:04.174Z,17.80
2017-04-08T09:52:01.968Z,17.60
2017-04-08T09:52:59.789Z,17.50
2017-04-08T09:53:57.577Z,17.60
2017-04-08T09:54:55.391Z,17.80
2017-04-08T09:55:53.929Z,17.90
2017-04-08T09:57:50.329Z,17.90
2017-04-08T09:58:48.146Z,18.00
2017-04-08T09:59:46.006Z,18.00
2017-04-08T10:00:43.817Z,17.90
2017-04-08T10:01:41.601Z,17.80
2017-04-08T10:02:40.129Z,17.70
2017-04-08T10:03:37.944Z,17.80
2017-04-08T10:04:35.742Z,17.80
2017-04-08T10:05:33.525Z,17.90
2017-04-08T10:07:29.782Z,17.90
2017-04-08T10:08:27.566Z,18.10
2017-04-08T10:09:25.421Z,18.20
2017-04-08T10:10:23.203Z,18.20
2017-04-08T10:11:21.014Z,18.20
2017-04-08T10:12:18.840Z,18.30
2017-04-08T10:13:17.383Z,18.30
2017-04-08T10:14:15.201Z,18.50
2017-04-08T10:15:13.021Z,18.50
2017-04-08T10:16:10.870Z,18.60
2017-04-08T10:18:07.138Z,18.50
2017-04-08T10:19:04.974Z,18.50
2017-04-08T10:20:02.828Z,18.50
2017-04-08T10:21:01.384Z,18.50
2017-04-08T10:21:59.204Z,18.60
2017-04-08T10:22:57.020Z,18.70
2017-04-08T10:23:54.852Z,18.80
2017-04-08T10:24:53.410Z,18.70
2017-04-08T10:25:51.234Z,18.80
2017-04-08T10:26:49.061Z,18.90
2017-04-08T10:27:47.021Z,19.10
2017-04-08T10:28:44.793Z,19.20
2017-04-08T10:29:42.621Z,19.20
2017-04-08T10:30:40.466Z,19.20
2017-04-08T10:31:38.310Z,19.00
2017-04-08T10:33:34.565Z,19.10
2017-04-08T10:34:32.421Z,19.20
2017-04-08T10:35:30.266Z,19.20
2017-04-08T10:36:28.851Z,19.20
2017-04-08T10:37:26.637Z,19.30
2017-04-08T10:38:24.475Z,19.20
2017-04-08T10:39:22.320Z,19.10
2017-04-08T10:40:20.124Z,19.10
2017-04-08T10:41:17.989Z,19.10
2017-04-08T10:42:15.833Z,19.20
2017-04-08T10:43:13.608Z,19.20
2017-04-08T10:45:09.893Z,19.10
2017-04-08T10:46:07.710Z,19.20
2017-04-08T10:47:05.498Z,19.30
2017-04-08T10:48:03.353Z,19.40
2017-04-08T10:49:01.248Z,19.40
2017-04-08T10:49:59.049Z,19.30
2017-04-08T10:50:57.095Z,19.10
2017-04-08T10:51:54.957Z,19.10
2017-04-08T10:52:52.762Z,19.00
2017-04-08T10:53:51.437Z,19.10
2017-04-08T10:54:49.251Z,19.20
2017-04-08T10:55:47.089Z,19.20
2017-04-08T10:56:44.941Z,19.20
2017-04-08T10:57:43.498Z,19.10
2017-04-08T10:58:42.053Z,19.20
2017-04-08T10:59:39.867Z,19.10
2017-04-08T11:00:37.709Z,19.10
2017-04-08T11:01:36.254Z,19.10
2017-04-08T11:02:34.149Z,19.20
2017-04-08T11:03:31.921Z,19.30
2017-04-08T11:04:29.701Z,19.40
2017-04-08T11:05:27.474Z,19.40
2017-04-08T11:06:25.280Z,19.30
2017-04-08T11:07:23.089Z,19.30
2017-04-08T11:08:20.885Z,19.50
2017-04-08T11:09:18.700Z,19.70
2017-04-08T11:10:16.640Z,19.60
2017-04-08T11:11:14.497Z,19.60
2017-04-08T11:12:12.294Z,19.60
2017-04-08T11:13:10.818Z,19.50
2017-04-08T11:14:08.621Z,19.50
2017-04-08T11:15:06.397Z,19.40
2017-04-08T11:16:04.225Z,19.40
2017-04-08T11:17:02.003Z,19.40
2017-04-08T11:17:59.785Z,19.30
2017-04-08T11:18:57.565Z,19.40
2017-04-08T11:20:53.908Z,19.60
2017-04-08T11:21:51.713Z,19.50
2017-04-08T11:22:49.489Z,19.50
2017-04-08T11:23:47.305Z,19.60
2017-04-08T11:24:45.082Z,19.50
2017-04-08T11:25:42.853Z,19.40
2017-04-08T11:26:40.693Z,19.40
2017-04-08T11:27:38.501Z,19.40
2017-04-08T11:28:37.054Z,19.40
2017-04-08T11:29:34.858Z,19.40
2017-04-08T11:30:32.661Z,19.50
2017-04-08T11:31:30.501Z,19.40
2017-04-08T11:33:26.801Z,19.30
2017-04-08T11:34:24.576Z,19.20
2017-04-08T11:35:22.391Z,19.10
2017-04-08T11:36:20.182Z,19.10
2017-04-08T11:37:18.487Z,19.10
2017-04-08T11:38:17.029Z,19.20
2017-04-08T11:39:14.814Z,19.30
2017-04-08T11:40:12.613Z,19.40
2017-04-08T11:41:10.454Z,19.60
2017-04-08T11:42:08.305Z,19.60
2017-04-08T11:43:06.104Z,19.70
2017-04-08T11:44:03.893Z,19.60
2017-04-08T11:45:02.434Z,19.50
2017-04-08T11:46:00.233Z,19.50
2017-04-08T11:46:58.769Z,19.40
2017-04-08T11:47:56.557Z,19.40
2017-04-08T11:48:55.077Z,19.30
2017-04-08T11:49:52.854Z,19.30
2017-04-08T11:50:50.637Z,19.40
2017-04-08T11:51:49.225Z,19.50
2017-04-08T11:52:47.078Z,19.50
2017-04-08T11:53:44.840Z,19.50
2017-04-08T11:54:42.640Z,19.50
2017-04-08T11:55:41.178Z,19.50
2017-04-08T11:56:39.006Z,19.50
2017-04-08T11:57:37.534Z,19.50
2017-04-08T11:58:35.325Z,19.50
2017-04-08T11:59:33.126Z,19.50
2017-04-08T12:00:31.030Z,19.50
2017-04-08T12:01:29.613Z,19.40
2017-04-08T12:02:27.515Z,19.40
2017-04-08T12:03:25.459Z,19.30
2017-04-08T12:04:23.241Z,19.20
2017-04-08T12:05:21.094Z,19.20
2017-04-08T12:06:18.933Z,19.20
2017-04-08T12:07:17.388Z,19.20
2017-04-08T12:08:15.322Z,19.10
2017-04-08T12:09:13.850Z,19.10
2017-04-08T12:10:11.631Z,19.20
2017-04-08T12:11:09.435Z,19.20
2017-04-08T12:12:07.333Z,19.30
2017-04-08T12:13:05.157Z,19.30
2017-04-08T12:14:03.012Z,19.30
2017-04-08T12:15:00.826Z,19.10
2017-04-08T12:15:59.372Z,19.10
2017-04-08T12:16:57.197Z,19.10
2017-04-08T12:17:55.009Z,19.10
2017-04-08T12:18:53.524Z,19.10
2017-04-08T12:19:51.319Z,19.20
2017-04-08T12:20:49.105Z,19.30
2017-04-08T12:21:47.637Z,19.20
2017-04-08T12:22:45.626Z,19.30
2017-04-08T12:23:44.165Z,19.20
2017-04-08T12:24:41.962Z,19.30
2017-04-08T12:25:40.532Z,19.30
2017-04-08T12:26:39.071Z,19.20
2017-04-08T12:27:36.860Z,19.30
2017-04-08T12:28:34.705Z,19.30
2017-04-08T12:29:32.469Z,19.30
2017-04-08T12:30:31.054Z,19.20
2017-04-08T12:31:28.873Z,19.30
2017-04-08T12:32:26.686Z,19.30
2017-04-08T12:33:24.497Z,19.30
2017-04-08T12:34:22.299Z,19.40
2017-04-08T12:35:20.089Z,19.40
2017-04-08T12:36:17.937Z,19.30
2017-04-08T12:38:14.271Z,19.20
2017-04-08T12:39:12.130Z,19.10
2017-04-08T12:41:08.377Z,19.30
2017-04-08T12:42:06.916Z,19.30
2017-04-08T12:43:04.706Z,19.40
2017-04-08T12:44:03.258Z,19.30
2017-04-08T12:45:01.794Z,19.30
2017-04-08T12:45:59.615Z,19.40
2017-04-08T12:46:57.463Z,19.40
2017-04-08T12:47:55.269Z,19.50
2017-04-08T12:48:53.546Z,19.40
2017-04-08T12:49:51.338Z,19.40
2017-04-08T12:50:49.169Z,19.50
2017-04-08T12:51:46.961Z,19.50
2017-04-08T12:52:44.845Z,19.50
2017-04-08T12:53:42.663Z,19.50
2017-04-08T12:54:41.185Z,19.40
2017-04-08T12:55:38.965Z,19.50
2017-04-08T12:56:36.781Z,19.50
2017-04-08T12:57:34.572Z,19.50
2017-04-08T12:58:32.385Z,19.40
2017-04-08T12:59:30.177Z,19.50
2017-04-08T13:00:28.003Z,19.60
2017-04-08T13:01:25.805Z,19.60
2017-04-08T13:03:22.102Z,19.60
2017-04-08T13:04:19.914Z,19.60
2017-04-08T13:05:17.703Z,19.60
2017-04-08T13:06:15.509Z,19.60
2017-04-08T13:07:14.126Z,19.40
2017-04-08T13:08:11.941Z,19.40
2017-04-08T13:09:09.761Z,19.40
2017-04-08T13:10:07.593Z,19.30
2017-04-08T13:11:05.381Z,19.30
2017-04-08T13:12:03.162Z,19.30
2017-04-08T13:13:00.984Z,19.30
2017-04-08T13:13:58.825Z,19.30
2017-04-08T13:14:56.625Z,19.30
2017-04-08T13:15:55.142Z,19.20
2017-04-08T13:16:52.926Z,19.20
2017-04-08T13:17:50.721Z,19.30
2017-04-08T13:18:48.513Z,19.30
2017-04-08T13:19:46.305Z,19.30
2017-04-08T13:21:42.561Z,19.40
2017-04-08T13:22:40.354Z,19.40